Time;durP1;ratioP1;P1;durP2;ratioP2;P2;SDS_P1;SDS_P2;PMS_P1;PMS_P2;Temp;Humidity;BMP_temperature;BMP_pressure;BME280_temperature;BME280_humidity;BME280_pressure;Samples;Min_cycle;Max_cycle;Signal;HPM_P1;HPM_P2
2022/10/15 00:00:34;;;;;;;13.18;7.65;;;;;;;8.17;59.42;100575.34;5033121;28;20041;-52
2022/10/15 00:03:00;;;;;;;13.77;7.72;;;;;;;8.20;59.48;100582.31;5033372;28;20036;-56
2022/10/15 00:05:26;;;;;;;11.68;7.65;;;;;;;8.07;59.05;100557.31;5033856;28;20037;-53
2022/10/15 00:07:52;;;;;;;11.23;7.10;;;;;;;8.21;59.18;100580.53;5038931;28;20028;-55
2022/10/15 00:10:18;;;;;;;13.10;7.95;;;;;;;8.21;59.12;100580.53;5051452;28;20029;-51
2022/10/15 00:12:44;;;;;;;13.98;7.60;;;;;;;8.22;58.60;100579.59;5053433;28;20029;-55
2022/10/15 00:15:10;;;;;;;12.77;7.75;;;;;;;8.18;59.04;100581.56;5052905;28;20029;-54
2022/10/15 00:17:36;;;;;;;18.75;7.47;;;;;;;8.16;58.71;100578.13;5050258;28;20041;-55
2022/10/15 00:20:05;;;;;;;15.68;7.80;;;;;;;8.02;58.64;100549.59;5035142;28;20033;-52
2022/10/15 00:22:30;;;;;;;13.07;7.78;;;;;;;8.19;58.68;100584.13;5053027;28;20095;-57
2022/10/15 00:24:56;;;;;;;16.83;7.95;;;;;;;8.23;58.82;100583.97;5053150;28;20032;-56
2022/10/15 00:27:21;;;;;;;20.77;7.40;;;;;;;8.08;58.72;100551.03;5052442;28;20068;-57
2022/10/15 00:29:47;;;;;;;14.10;7.35;;;;;;;8.26;58.57;100579.28;5032742;28;20095;-53
2022/10/15 00:32:13;;;;;;;15.07;7.45;;;;;;;8.26;59.03;100579.28;5032754;28;20065;-52
2022/10/15 00:34:39;;;;;;;14.10;6.82;;;;;;;8.22;58.68;100577.75;5034390;28;20113;-50
2022/10/15 00:37:05;;;;;;;15.75;6.78;;;;;;;8.19;58.96;100575.28;5033102;28;20490;-54
2022/10/15 00:39:31;;;;;;;12.65;7.50;;;;;;;8.22;59.06;100587.59;5050390;28;20029;-62
2022/10/15 00:41:56;;;;;;;11.35;7.63;;;;;;;8.20;58.54;100582.31;5052978;28;20043;-58
2022/10/15 00:44:24;;;;;;;11.65;7.63;;;;;;;8.25;58.71;100587.41;5052848;28;20033;-55
2022/10/15 00:47:03;;;;;;;16.73;7.88;;;;;;;8.27;58.89;100586.34;5052774;28;20072;-51
2022/10/15 00:49:34;;;;;;;18.73;7.82;;;;;;;8.12;58.93;100580.09;5051274;28;20078;-54
2022/10/15 00:52:10;;;;;;;14.20;7.40;;;;;;;8.12;59.03;100580.09;5052897;28;20045;-54
2022/10/15 00:54:41;;;;;;;14.63;7.60;;;;;;;8.13;59.29;100587.16;5052025;28;20056;-55
2022/10/15 00:57:09;;;;;;;13.15;7.10;;;;;;;8.12;59.21;100588.09;5067514;28;20040;-55
2022/10/15 00:59:40;;;;;;;11.93;6.95;;;;;;;8.11;59.23;100581.06;5034265;28;20026;-55
2022/10/15 01:02:07;;;;;;;12.77;6.50;;;;;;;8.08;59.34;100586.56;5032496;28;20428;-56
2022/10/15 01:04:33;;;;;;;7.57;5.85;;;;;;;8.09;59.31;100592.78;5032565;28;20444;-64
2022/10/15 01:06:59;;;;;;;12.65;6.10;;;;;;;8.07;58.92;100592.84;5032797;28;20044;-56
2022/10/15 01:09:25;;;;;;;12.40;6.38;;;;;;;8.05;59.36;100597.41;5048490;28;20033;-53
2022/10/15 01:11:53;;;;;;;10.45;6.22;;;;;;;8.07;59.63;100590.19;5045382;28;20037;-54
2022/10/15 01:14:21;;;;;;;14.50;6.20;;;;;;;8.09;59.34;100587.44;5032572;28;20029;-56
2022/10/15 01:16:59;;;;;;;13.25;6.07;;;;;;;8.13;59.11;100596.97;5032367;28;20084;-56
2022/10/15 01:19:45;;;;;;;11.68;5.68;;;;;;;8.15;59.16;100587.91;5048366;28;20097;-54
2022/10/15 01:22:23;;;;;;;10.52;5.88;;;;;;;8.17;58.87;100586.03;5041506;28;20044;-54
2022/10/15 01:25:01;;;;;;;11.75;6.10;;;;;;;8.18;59.13;100593.06;5032385;28;20064;-53
2022/10/15 01:27:42;;;;;;;10.43;5.78;;;;;;;8.12;59.12;100590.78;5032162;28;20312;-62
2022/10/15 01:30:17;;;;;;;8.77;5.63;;;;;;;8.13;59.05;100594.31;5051579;28;20061;-52
2022/10/15 01:32:56;;;;;;;11.00;5.93;;;;;;;8.16;59.08;100597.66;5032184;28;20042;-54
2022/10/15 01:35:42;;;;;;;15.20;5.80;;;;;;;8.01;59.11;100585.22;5032181;28;20026;-54
2022/10/15 01:38:36;;;;;;;15.15;6.40;;;;;;;8.18;59.26;100606.41;5036747;28;20029;-53
2022/10/15 01:41:13;;;;;;;13.13;5.75;;;;;;;8.16;59.01;100605.66;5052203;28;20060;-54
2022/10/15 01:43:51;;;;;;;18.08;5.18;;;;;;;8.19;59.29;100610.78;5051953;28;20448;-55
2022/10/15 01:46:22;;;;;;;9.30;5.35;;;;;;;8.16;58.79;100605.66;5051614;28;20017;-54
2022/10/15 01:48:51;;;;;;;10.70;5.40;;;;;;;8.11;59.01;100607.72;5050154;28;20048;-56
2022/10/15 01:51:19;;;;;;;11.57;5.32;;;;;;;7.92;59.12;100581.25;5049203;28;20067;-51
2022/10/15 01:53:47;;;;;;;11.32;5.30;;;;;;;8.03;59.31;100610.00;5031967;28;20128;-52
2022/10/15 01:56:19;;;;;;;9.30;4.88;;;;;;;8.07;59.33;100613.31;5031794;28;20345;-54
2022/10/15 01:58:47;;;;;;;13.32;5.13;;;;;;;8.06;59.38;100612.47;5041399;28;20443;-56
2022/10/15 02:01:14;;;;;;;10.88;5.43;;;;;;;8.09;59.25;100608.78;5051523;28;20063;-56
2022/10/15 02:03:58;;;;;;;8.88;5.35;;;;;;;8.18;59.21;100617.09;5050077;28;20518;-57
2022/10/15 02:06:35;;;;;;;13.80;5.25;;;;;;;8.14;58.96;100614.69;5051139;28;20032;-51
2022/10/15 02:09:28;;;;;;;12.07;5.38;;;;;;;8.12;59.02;100611.28;5051576;28;20051;-54
2022/10/15 02:12:16;;;;;;;11.10;5.75;;;;;;;8.09;59.14;100604.28;5052527;28;20360;-59
2022/10/15 02:15:21;;;;;;;8.52;4.95;;;;;;;8.21;59.03;100617.88;5048316;28;20037;-56
2022/10/15 02:18:11;;;;;;;8.57;4.28;;;;;;;8.23;58.73;100616.81;5016939;28;20033;-56
2022/10/15 02:21:00;;;;;;;9.50;5.07;;;;;;;8.14;58.98;100618.22;5034476;28;20414;-55
2022/10/15 02:23:32;;;;;;;6.57;4.75;;;;;;;8.12;59.03;100616.59;5035360;28;20033;-54
2022/10/15 02:25:58;;;;;;;10.07;4.68;;;;;;;8.09;58.83;100619.44;5035565;28;20029;-49
2022/10/15 02:28:27;;;;;;;5.55;4.32;;;;;;;8.07;58.74;100624.84;5052305;28;20051;-54
2022/10/15 02:30:55;;;;;;;9.55;5.00;;;;;;;7.83;58.74;100590.66;5054648;28;20079;-49
2022/10/15 02:33:22;;;;;;;7.07;4.50;;;;;;;8.00;58.89;100620.84;5054718;28;20029;-54
2022/10/15 02:35:50;;;;;;;9.35;4.57;;;;;;;8.03;58.70;100631.31;5055050;28;20029;-50
2022/10/15 02:38:19;;;;;;;7.45;4.75;;;;;;;8.07;58.26;100631.97;5039544;28;20026;-52
2022/10/15 02:40:46;;;;;;;7.50;4.57;;;;;;;8.05;58.77;100629.44;5035099;28;20049;-54
2022/10/15 02:43:14;;;;;;;5.72;4.15;;;;;;;8.07;58.08;100632.84;5035773;28;20364;-54
2022/10/15 02:45:40;;;;;;;9.07;4.47;;;;;;;7.88;58.25;100595.72;5038339;28;20143;-55
2022/10/15 02:48:06;;;;;;;6.07;4.28;;;;;;;8.05;58.26;100630.25;5041596;28;20034;-55
2022/10/15 02:50:32;;;;;;;8.25;4.20;;;;;;;8.07;58.40;100624.84;5035018;28;20083;-53
2022/10/15 02:52:57;;;;;;;8.55;4.50;;;;;;;8.06;58.32;100631.13;5033910;28;20316;-54
2022/10/15 02:55:23;;;;;;;10.73;4.35;;;;;;;8.08;58.56;100639.91;5034873;28;20029;-53
2022/10/15 02:57:48;;;;;;;9.77;4.20;;;;;;;8.08;58.39;100631.91;5045235;28;20039;-52
2022/10/15 03:00:14;;;;;;;7.15;4.18;;;;;;;8.07;58.01;100627.53;5054356;28;20033;-50
2022/10/15 03:02:40;;;;;;;6.95;4.75;;;;;;;8.09;58.37;100641.63;5054718;28;20032;-56
2022/10/15 03:05:05;;;;;;;6.70;4.00;;;;;;;8.10;58.05;100635.34;5046715;28;20045;-49
2022/10/15 03:07:31;;;;;;;5.78;3.95;;;;;;;8.07;58.50;100635.53;5042707;28;20082;-52
2022/10/15 03:09:56;;;;;;;6.82;4.20;;;;;;;8.07;58.22;100642.66;5054673;28;20036;-52
2022/10/15 03:12:24;;;;;;;7.30;4.35;;;;;;;8.06;58.36;100641.81;5054464;28;20028;-53
2022/10/15 03:14:50;;;;;;;7.60;4.63;;;;;;;8.00;58.50;100626.16;5054228;28;20455;-48
2022/10/15 03:17:16;;;;;;;6.90;4.60;;;;;;;8.04;58.39;100641.88;5048135;28;20117;-52
2022/10/15 03:19:41;;;;;;;8.48;4.72;;;;;;;8.00;58.42;100637.69;5034294;28;20383;-51
2022/10/15 03:22:07;;;;;;;8.10;4.63;;;;;;;8.04;58.51;100644.56;5034080;28;20021;-56
2022/10/15 03:24:32;;;;;;;8.13;4.88;;;;;;;8.06;58.42;100641.81;5044894;28;20041;-55
2022/10/15 03:26:58;;;;;;;8.05;4.50;;;;;;;8.07;58.58;100642.66;5050645;28;20113;-55
2022/10/15 03:29:23;;;;;;;8.32;4.22;;;;;;;8.07;58.63;100643.53;5034469;28;20520;-56
2022/10/15 03:31:49;;;;;;;8.75;4.40;;;;;;;8.08;58.64;100639.03;5048963;28;20029;-52
2022/10/15 03:34:14;;;;;;;8.32;4.10;;;;;;;8.09;58.42;100641.63;5053980;28;20370;-53
2022/10/15 03:36:40;;;;;;;7.82;4.47;;;;;;;8.09;58.32;100636.28;5053053;28;20025;-55
2022/10/15 03:39:06;;;;;;;8.88;4.60;;;;;;;8.10;58.07;100643.34;5034065;28;20029;-50
2022/10/15 03:41:32;;;;;;;9.05;4.25;;;;;;;8.10;58.05;100638.00;5033843;28;20049;-50
2022/10/15 03:44:02;;;;;;;6.15;4.50;;;;;;;8.13;58.52;100643.16;5034700;28;20124;-55
2022/10/15 03:46:27;;;;;;;7.60;4.50;;;;;;;8.09;58.21;100646.97;5033671;28;20033;-55
2022/10/15 03:48:53;;;;;;;7.80;4.43;;;;;;;8.09;57.82;100641.63;5052301;28;20506;-55
2022/10/15 03:51:18;;;;;;;6.70;4.30;;;;;;;8.08;58.17;100642.56;5053588;28;20047;-52
2022/10/15 03:53:43;;;;;;;6.68;4.28;;;;;;;8.00;57.74;100631.50;5050707;28;20058;-56
2022/10/15 03:56:09;;;;;;;6.30;4.05;;;;;;;8.11;57.63;100645.06;5034027;28;20030;-56
2022/10/15 03:58:34;;;;;;;7.10;4.35;;;;;;;8.11;57.66;100642.41;5048643;28;20025;-56
2022/10/15 04:01:00;;;;;;;7.90;4.50;;;;;;;8.12;57.74;100645.94;5053613;28;20439;-58
2022/10/15 04:03:25;;;;;;;5.78;4.03;;;;;;;8.11;57.84;100646.91;5036556;28;20033;-55
2022/10/15 04:05:51;;;;;;;9.93;4.35;;;;;;;8.14;57.86;100649.38;5033179;28;20044;-57
2022/10/15 04:08:17;;;;;;;6.97;3.97;;;;;;;8.12;57.79;100653.94;5034063;28;20025;-56
2022/10/15 04:10:43;;;;;;;8.30;4.18;;;;;;;8.12;57.69;100653.94;5051959;28;20036;-63
2022/10/15 04:13:09;;;;;;;6.78;3.90;;;;;;;8.11;57.66;100655.72;5053376;28;20405;-55
2022/10/15 04:15:38;;;;;;;10.98;4.47;;;;;;;8.13;57.61;100651.16;5053115;28;20508;-49
2022/10/15 04:18:03;;;;;;;8.15;4.10;;;;;;;8.13;57.19;100648.50;5041547;28;20048;-57
2022/10/15 04:20:29;;;;;;;7.53;4.35;;;;;;;8.13;57.09;100635.16;5032878;28;20033;-57
2022/10/15 04:22:55;;;;;;;6.32;4.35;;;;;;;8.21;57.20;100657.91;5033155;28;20029;-60
2022/10/15 04:25:21;;;;;;;6.80;3.58;;;;;;;8.16;56.82;100653.66;5033250;28;20120;-61
2022/10/15 04:27:46;;;;;;;7.32;3.85;;;;;;;8.14;57.22;100654.72;5056929;28;20036;-64
2022/10/15 04:30:13;;;;;;;6.82;3.97;;;;;;;8.09;56.85;100646.13;5052226;28;20056;-60
2022/10/15 04:32:38;;;;;;;8.50;4.35;;;;;;;8.10;57.00;100648.69;5052807;28;20032;-67
2022/10/15 04:35:04;;;;;;;8.95;4.18;;;;;;;7.96;56.83;100629.97;5051875;28;20033;-53
2022/10/15 04:37:33;;;;;;;11.32;4.82;;;;;;;8.21;56.64;100660.56;5046660;28;20026;-53
2022/10/15 04:39:59;;;;;;;7.38;4.07;;;;;;;8.16;56.57;100650.16;5032713;28;20477;-55
2022/10/15 04:42:24;;;;;;;6.97;4.07;;;;;;;8.19;56.47;100655.31;5050731;28;20140;-64
2022/10/15 04:44:50;;;;;;;8.85;4.47;;;;;;;8.24;56.04;100658.56;5053042;28;20071;-60
2022/10/15 04:47:15;;;;;;;6.72;4.30;;;;;;;8.21;55.69;100645.41;5048897;28;20021;-65
2022/10/15 04:49:41;;;;;;;8.80;4.35;;;;;;;8.29;55.51;100663.63;5048600;28;20025;-56
2022/10/15 04:52:06;;;;;;;5.78;4.10;;;;;;;8.24;55.83;100655.03;5032959;28;20130;-55
2022/10/15 04:54:32;;;;;;;6.28;4.20;;;;;;;8.29;55.46;100664.47;5033406;28;20083;-55
2022/10/15 04:56:57;;;;;;;9.23;4.05;;;;;;;8.26;55.82;100653.16;5033553;28;20033;-59
2022/10/15 04:59:23;;;;;;;9.55;4.53;;;;;;;8.32;55.49;100663.47;5037919;28;20222;-56
2022/10/15 05:01:48;;;;;;;8.23;4.75;;;;;;;8.36;55.42;100672.16;5033272;28;20033;-53
2022/10/15 05:04:14;;;;;;;7.07;4.32;;;;;;;8.42;55.22;100669.13;5053042;28;20037;-54
2022/10/15 05:06:39;;;;;;;6.30;4.75;;;;;;;8.45;55.00;100672.47;5050904;28;20072;-61
2022/10/15 05:09:05;;;;;;;8.45;4.57;;;;;;;8.47;54.59;100669.72;5032437;28;20825;-61
2022/10/15 05:11:30;;;;;;;7.22;4.38;;;;;;;8.56;54.43;100671.88;5048127;28;20033;-61
2022/10/15 05:13:57;;;;;;;4.95;3.80;;;;;;;8.59;54.40;100682.38;5032485;28;20101;-58
2022/10/15 05:16:25;;;;;;;10.70;4.25;;;;;;;8.62;54.25;100681.31;5032456;28;20030;-59
2022/10/15 05:18:55;;;;;;;6.45;3.97;;;;;;;8.67;54.22;100684.56;5032106;28;20038;-56
2022/10/15 05:21:20;;;;;;;9.15;4.60;;;;;;;8.65;54.22;100678.47;5032332;28;20039;-56
2022/10/15 05:23:46;;;;;;;8.85;4.80;;;;;;;8.64;54.08;100670.56;5050187;28;20025;-52
2022/10/15 05:26:14;;;;;;;6.28;4.38;;;;;;;8.72;54.33;100685.19;5045204;28;20033;-53
2022/10/15 05:28:40;;;;;;;6.53;4.32;;;;;;;8.67;54.02;100673.91;5049632;28;20463;-50
2022/10/15 05:31:08;;;;;;;6.15;3.97;;;;;;;8.76;53.61;100678.72;5052025;28;20033;-52
2022/10/15 05:33:34;;;;;;;7.22;4.50;;;;;;;8.74;53.82;100680.63;5052079;28;20364;-53
2022/10/15 05:36:16;;;;;;;6.82;4.10;;;;;;;8.84;53.84;100688.94;5052029;28;20047;-60
2022/10/15 05:38:45;;;;;;;7.63;4.32;;;;;;;8.64;53.34;100657.22;5031946;28;20056;-56
2022/10/15 05:41:11;;;;;;;6.97;4.07;;;;;;;8.81;53.38;100682.91;5031980;28;20088;-51
2022/10/15 05:43:37;;;;;;;8.63;4.63;;;;;;;8.86;53.44;100688.84;5032120;28;20079;-54
2022/10/15 05:46:02;;;;;;;7.75;4.25;;;;;;;8.91;53.29;100689.41;5036133;28;20030;-55
2022/10/15 05:48:28;;;;;;;7.05;4.15;;;;;;;8.90;53.11;100669.00;5036423;28;20021;-56
2022/10/15 05:50:59;;;;;;;6.78;4.60;;;;;;;9.07;53.32;100691.16;5052909;28;20037;-54
2022/10/15 05:53:25;;;;;;;10.93;4.38;;;;;;;9.08;52.71;100691.09;5055862;28;20075;-54
2022/10/15 05:55:52;;;;;;;7.38;4.43;;;;;;;9.13;52.47;100690.78;5054940;28;20075;-62
2022/10/15 05:58:18;;;;;;;10.80;4.47;;;;;;;9.17;52.93;100689.69;5051844;28;20102;-65
2022/10/15 06:00:44;;;;;;;11.63;5.13;;;;;;;9.24;52.69;100691.00;5034907;28;20033;-63
2022/10/15 06:03:15;;;;;;;9.52;4.10;;;;;;;9.32;52.26;100680.69;5035713;28;20355;-62
2022/10/15 06:05:40;;;;;;;10.32;4.75;;;;;;;9.33;51.85;100682.41;5035892;28;20045;-60
2022/10/15 06:08:06;;;;;;;14.52;5.03;;;;;;;9.39;51.84;100696.34;5053688;28;20037;-63
2022/10/15 06:10:35;;;;;;;11.32;4.80;;;;;;;9.46;51.76;100687.03;5054964;28;20035;-62
2022/10/15 06:13:00;;;;;;;9.75;4.35;;;;;;;9.29;51.08;100669.38;5065478;28;20040;-62
2022/10/15 06:15:26;;;;;;;7.03;4.72;;;;;;;9.33;51.02;100670.88;5035611;28;20055;-63
2022/10/15 06:17:53;;;;;;;7.13;3.83;;;;;;;9.38;50.56;100684.81;5035568;28;20156;-62
2022/10/15 06:20:18;;;;;;;9.05;4.18;;;;;;;9.46;50.57;100692.38;5055973;28;20061;-63
2022/10/15 06:22:44;;;;;;;9.90;4.53;;;;;;;9.55;50.20;100696.28;5055363;28;20057;-63
2022/10/15 06:25:09;;;;;;;14.93;7.18;;;;;;;9.57;50.63;100689.03;5070812;28;20037;-63
2022/10/15 06:27:35;;;;;;;11.38;4.53;;;;;;;9.56;49.95;100680.13;5055533;28;20032;-62
2022/10/15 06:30:00;;;;;;;11.80;4.50;;;;;;;9.62;50.26;100697.59;5040740;28;20030;-62
2022/10/15 06:32:26;;;;;;;17.95;4.70;;;;;;;9.64;49.99;100682.31;5042153;28;20055;-62
2022/10/15 06:34:51;;;;;;;18.77;5.50;;;;;;;9.74;50.01;100685.28;5053898;28;20029;-65
2022/10/15 06:37:17;;;;;;;22.65;6.43;;;;;;;9.84;50.27;100685.56;5043628;28;20119;-61
2022/10/15 06:39:42;;;;;;;17.13;5.70;;;;;;;9.94;49.61;100688.50;5034805;28;20076;-61
2022/10/15 06:42:08;;;;;;;14.70;6.13;;;;;;;9.98;49.94;100687.34;5035240;28;20195;-62
2022/10/15 06:44:33;;;;;;;19.55;5.80;;;;;;;10.03;49.31;100693.25;5034930;28;20117;-65
2022/10/15 06:46:59;;;;;;;12.80;5.45;;;;;;;10.00;49.40;100693.44;5033791;28;20037;-63
2022/10/15 06:49:24;;;;;;;13.98;5.45;;;;;;;9.99;49.41;100694.41;5047725;28;20029;-61
2022/10/15 06:51:49;;;;;;;10.18;5.55;;;;;;;9.98;49.26;100688.19;5055286;28;20511;-61
2022/10/15 06:54:15;;;;;;;12.05;4.95;;;;;;;10.00;49.30;100690.78;5054505;28;20029;-61
2022/10/15 06:56:40;;;;;;;8.82;4.72;;;;;;;10.05;49.37;100704.72;5053428;28;20112;-62
2022/10/15 06:59:06;;;;;;;12.05;5.18;;;;;;;10.10;48.97;100699.06;5051474;28;20036;-60
2022/10/15 07:01:31;;;;;;;11.35;5.40;;;;;;;10.19;48.62;100707.38;5054753;28;20029;-62
2022/10/15 07:03:57;;;;;;;11.73;5.80;;;;;;;10.25;48.34;100706.13;5054061;28;20055;-61
2022/10/15 07:06:22;;;;;;;13.30;5.60;;;;;;;10.18;48.85;100686.91;5052161;28;20112;-61
2022/10/15 07:08:47;;;;;;;14.85;5.40;;;;;;;10.37;48.44;100703.56;5054920;28;20457;-61
2022/10/15 07:11:13;;;;;;;13.48;4.90;;;;;;;10.44;48.07;100704.91;5054192;28;20033;-61
2022/10/15 07:13:39;;;;;;;13.90;5.40;;;;;;;10.52;47.44;100709.75;5044633;28;20033;-61
2022/10/15 07:16:06;;;;;;;10.00;5.07;;;;;;;10.33;47.39;100686.84;5034452;28;20099;-62
2022/10/15 07:18:31;;;;;;;14.75;5.00;;;;;;;10.49;47.28;100716.19;5034228;28;20044;-61
2022/10/15 07:20:57;;;;;;;13.13;5.47;;;;;;;10.32;47.55;100679.78;5035439;28;20025;-62
2022/10/15 07:23:22;;;;;;;13.90;5.60;;;;;;;10.52;47.75;100713.31;5033670;28;20029;-61
2022/10/15 07:25:48;;;;;;;17.23;6.45;;;;;;;10.57;47.50;100715.66;5037135;28;20032;-61
2022/10/15 07:28:13;;;;;;;14.02;5.07;;;;;;;10.63;47.41;100721.47;5042136;28;20141;-63
2022/10/15 07:30:39;;;;;;;12.30;5.22;;;;;;;10.68;47.11;100715.81;5034274;28;20060;-61
2022/10/15 07:33:04;;;;;;;13.45;5.85;;;;;;;10.72;47.18;100719.13;5035457;28;20069;-62
2022/10/15 07:35:30;;;;;;;13.80;5.65;;;;;;;10.80;46.26;100721.31;5053174;28;20032;-62
2022/10/15 07:37:59;;;;;;;17.70;5.43;;;;;;;10.87;46.22;100731.50;5054006;28;20411;-61
2022/10/15 07:40:25;;;;;;;14.73;6.65;;;;;;;10.84;45.88;100733.53;5052904;28;20052;-63
2022/10/15 07:42:55;;;;;;;15.90;5.95;;;;;;;10.91;45.96;100735.69;5054420;28;20032;-62
2022/10/15 07:45:21;;;;;;;21.23;6.72;;;;;;;10.75;46.10;100703.72;5054309;28;20179;-64
2022/10/15 07:47:47;;;;;;;26.40;7.00;;;;;;;11.00;45.72;100736.91;5051966;28;20507;-62
2022/10/15 07:50:12;;;;;;;18.17;7.18;;;;;;;11.04;45.23;100729.53;5049253;28;20452;-61
2022/10/15 07:52:37;;;;;;;14.90;6.70;;;;;;;11.10;45.73;100733.59;5033974;28;20037;-64
2022/10/15 07:55:03;;;;;;;21.25;7.55;;;;;;;11.08;45.14;100730.16;5033544;28;20121;-63
2022/10/15 07:57:29;;;;;;;14.55;6.53;;;;;;;11.18;45.02;100737.44;5034023;28;20185;-62
2022/10/15 07:59:54;;;;;;;15.57;6.13;;;;;;;11.20;44.66;100734.69;5034054;28;20056;-62
2022/10/15 08:02:21;;;;;;;15.65;6.45;;;;;;;11.05;44.60;100710.63;5033741;28;20338;-62
2022/10/15 08:04:47;;;;;;;13.02;5.45;;;;;;;11.20;44.78;100735.53;5036084;28;20049;-62
2022/10/15 08:07:12;;;;;;;14.75;5.53;;;;;;;11.23;45.25;100730.94;5053048;28;20420;-61
2022/10/15 08:09:38;;;;;;;16.55;5.88;;;;;;;11.30;45.48;100741.09;5045665;28;20037;-61
2022/10/15 08:12:05;;;;;;;18.55;5.82;;;;;;;11.40;45.15;100735.13;5032331;28;20436;-62
2022/10/15 08:14:31;;;;;;;14.93;5.28;;;;;;;11.43;45.59;100734.91;5044392;28;20152;-61
2022/10/15 08:16:57;;;;;;;15.88;5.13;;;;;;;11.52;45.13;100734.25;5069048;28;20029;-63
2022/10/15 08:19:22;;;;;;;15.52;5.82;;;;;;;11.56;44.96;100735.75;5052612;28;20021;-62
2022/10/15 08:21:48;;;;;;;14.40;6.15;;;;;;;11.50;44.97;100717.41;5052427;28;20028;-61
2022/10/15 08:24:13;;;;;;;16.90;5.75;;;;;;;11.67;44.91;100737.69;5053361;28;20048;-61
2022/10/15 08:26:39;;;;;;;12.82;5.55;;;;;;;11.73;44.61;100736.41;5043982;28;20041;-61
2022/10/15 08:29:04;;;;;;;11.20;5.38;;;;;;;11.77;44.75;100745.94;5036639;28;20098;-63
2022/10/15 08:31:30;;;;;;;17.45;5.88;;;;;;;11.82;44.15;100741.13;5053045;28;20039;-62
2022/10/15 08:33:59;;;;;;;10.75;5.80;;;;;;;11.86;44.39;100747.09;5053400;28;20025;-62
2022/10/15 08:36:24;;;;;;;10.25;5.45;;;;;;;11.78;44.39;100743.16;5053393;28;20068;-61
2022/10/15 08:38:50;;;;;;;15.02;6.05;;;;;;;11.77;44.72;100743.25;5034852;28;20072;-61
2022/10/15 08:41:27;;;;;;;14.70;5.60;;;;;;;11.76;44.58;100752.28;5032749;28;20165;-62
2022/10/15 08:43:53;;;;;;;20.42;5.93;;;;;;;11.72;44.75;100754.34;5045536;28;20033;-62
2022/10/15 08:46:29;;;;;;;21.90;5.85;;;;;;;11.86;44.53;100758.72;5052947;28;20391;-61
2022/10/15 08:48:58;;;;;;;10.75;5.50;;;;;;;11.87;44.32;100754.19;5065000;28;20049;-61
2022/10/15 08:51:38;;;;;;;13.32;5.28;;;;;;;12.00;44.72;100760.41;5031353;28;20103;-62
2022/10/15 08:54:05;;;;;;;13.77;5.82;;;;;;;11.99;44.17;100755.13;5032181;28;20037;-62
2022/10/15 08:56:38;;;;;;;16.30;5.88;;;;;;;12.08;44.38;100754.53;5032578;28;20091;-61
2022/10/15 08:59:48;;;;;;;18.25;6.03;;;;;;;12.26;44.25;100749.63;5032815;28;20053;-63
2022/10/15 09:02:30;;;;;;;10.48;5.35;;;;;;;12.38;43.63;100744.31;5039271;28;20045;-62
2022/10/15 09:05:13;;;;;;;10.77;5.05;;;;;;;12.41;43.43;100747.66;5052838;28;20036;-62
2022/10/15 09:07:43;;;;;;;14.45;5.03;;;;;;;12.42;42.69;100752.06;5051803;28;20391;-63
2022/10/15 09:10:17;;;;;;;17.58;5.35;;;;;;;12.45;42.82;100749.13;5034935;28;20052;-61
2022/10/15 09:12:51;;;;;;;16.38;5.82;;;;;;;12.42;42.92;100749.38;5052071;28;20121;-62
2022/10/15 09:15:19;;;;;;;12.52;4.97;;;;;;;12.41;42.46;100753.03;5034296;28;20029;-62
2022/10/15 09:17:48;;;;;;;11.52;4.55;;;;;;;12.27;42.52;100729.88;5050705;28;20029;-60
2022/10/15 09:20:24;;;;;;;14.88;4.97;;;;;;;12.43;42.79;100739.50;5067178;28;20037;-61
2022/10/15 09:22:50;;;;;;;12.38;4.82;;;;;;;12.46;42.54;100745.47;5049815;28;20042;-63
2022/10/15 09:25:19;;;;;;;10.85;4.90;;;;;;;12.55;42.47;100743.09;5032914;28;20111;-61
2022/10/15 09:27:47;;;;;;;12.35;4.88;;;;;;;12.57;41.78;100738.47;5047673;28;20446;-62
2022/10/15 09:30:27;;;;;;;8.50;4.22;;;;;;;12.68;42.41;100738.50;5047392;28;20502;-61
2022/10/15 09:33:12;;;;;;;10.43;4.30;;;;;;;12.87;42.40;100742.50;5049803;28;20040;-61
2022/10/15 09:35:46;;;;;;;11.68;4.70;;;;;;;12.88;41.77;100738.84;5032734;28;20033;-62
2022/10/15 09:38:32;;;;;;;8.27;4.10;;;;;;;12.85;41.46;100739.06;5031953;28;20120;-61
2022/10/15 09:41:03;;;;;;;10.35;4.45;;;;;;;12.92;41.31;100745.69;5020609;28;20384;-62
2022/10/15 09:43:35;;;;;;;12.57;4.53;;;;;;;12.76;41.50;100746.00;5031248;28;20052;-61
2022/10/15 09:46:02;;;;;;;9.18;3.85;;;;;;;12.63;41.36;100746.91;5032218;28;20469;-60
2022/10/15 09:48:34;;;;;;;6.22;4.10;;;;;;;12.46;42.05;100748.16;5045234;28;20030;-61
2022/10/15 09:51:15;;;;;;;12.05;3.90;;;;;;;12.37;42.09;100747.97;5047102;28;20064;-62
2022/10/15 09:53:53;;;;;;;11.93;4.03;;;;;;;12.21;42.50;100746.44;5050409;28;20033;-61
2022/10/15 09:56:23;;;;;;;9.10;3.83;;;;;;;12.13;42.92;100746.13;5050149;28;20061;-60
2022/10/15 09:58:52;;;;;;;8.52;4.00;;;;;;;12.03;42.98;100738.75;5047367;28;20448;-61
2022/10/15 10:01:23;;;;;;;8.80;4.30;;;;;;;11.96;43.34;100747.31;5050150;28;20037;-61
2022/10/15 10:04:07;;;;;;;6.13;3.97;;;;;;;11.98;43.06;100740.88;5048918;28;20048;-61
2022/10/15 10:06:43;;;;;;;10.25;4.35;;;;;;;12.04;42.93;100742.28;5049310;28;20067;-61
2022/10/15 10:09:18;;;;;;;9.02;4.18;;;;;;;12.03;43.17;100744.13;5045583;28;20031;-62
2022/10/15 10:11:50;;;;;;;11.85;4.32;;;;;;;12.02;43.09;100737.03;5031711;28;20049;-63
2022/10/15 10:14:26;;;;;;;14.10;4.68;;;;;;;12.01;43.36;100747.88;5031984;28;20079;-61
2022/10/15 10:17:06;;;;;;;7.70;4.15;;;;;;;12.06;43.44;100743.88;5031683;28;20095;-63
2022/10/15 10:19:31;;;;;;;14.95;4.78;;;;;;;12.04;43.84;100736.91;5043679;28;20436;-62
2022/10/15 10:22:14;;;;;;;10.68;4.82;;;;;;;12.24;43.84;100737.28;5051366;28;20036;-62
2022/10/15 10:24:40;;;;;;;12.95;4.85;;;;;;;12.24;43.19;100734.59;5049037;28;20110;-62
2022/10/15 10:27:27;;;;;;;11.77;4.70;;;;;;;12.22;43.05;100712.38;5051062;28;20464;-61
2022/10/15 10:30:00;;;;;;;9.07;4.70;;;;;;;12.44;42.84;100749.25;5049343;28;20448;-62
2022/10/15 10:32:30;;;;;;;8.82;4.70;;;;;;;12.33;42.63;100740.16;5053899;28;20065;-63
2022/10/15 10:34:57;;;;;;;9.60;4.70;;;;;;;12.36;42.81;100749.81;5070394;28;20037;-61
2022/10/15 10:37:23;;;;;;;12.75;4.70;;;;;;;12.36;42.92;100744.47;5055072;28;20021;-62
2022/10/15 10:39:55;;;;;;;10.48;5.43;;;;;;;12.34;42.86;100739.19;5053434;28;20029;-61
2022/10/15 10:42:25;;;;;;;15.65;5.13;;;;;;;12.26;43.03;100744.28;5054295;28;20363;-67
2022/10/15 10:44:52;;;;;;;10.98;5.45;;;;;;;12.24;43.17;100746.22;5034809;28;20077;-64
2022/10/15 10:47:25;;;;;;;11.82;5.40;;;;;;;12.27;43.41;100742.44;5035209;28;20040;-62
2022/10/15 10:49:53;;;;;;;9.15;4.97;;;;;;;12.12;43.53;100709.50;5035114;28;20030;-62
2022/10/15 10:52:36;;;;;;;13.48;5.03;;;;;;;12.42;43.34;100743.13;5035138;28;20026;-62
2022/10/15 10:55:11;;;;;;;14.10;5.68;;;;;;;12.40;43.35;100742.38;5033920;28;20036;-61
2022/10/15 10:57:54;;;;;;;14.00;5.45;;;;;;;12.49;43.34;100739.03;5046484;28;20030;-61
2022/10/15 11:00:41;;;;;;;11.48;5.75;;;;;;;12.53;43.28;100739.63;5035165;28;20045;-63
2022/10/15 11:03:22;;;;;;;11.18;5.45;;;;;;;12.49;43.57;100737.19;5033639;28;20452;-62
2022/10/15 11:05:52;;;;;;;10.73;5.60;;;;;;;12.50;43.30;100740.75;5034635;28;20037;-62
2022/10/15 11:08:26;;;;;;;13.90;5.85;;;;;;;12.53;43.11;100734.28;5033908;28;20061;-62
2022/10/15 11:11:10;;;;;;;11.25;5.75;;;;;;;12.64;43.17;100737.88;5033767;28;20044;-62
2022/10/15 11:13:42;;;;;;;12.07;5.55;;;;;;;12.67;43.11;100742.16;5050358;28;20049;-62
2022/10/15 11:16:33;;;;;;;13.05;5.53;;;;;;;12.70;43.04;100739.25;5034679;28;20026;-61
2022/10/15 11:19:16;;;;;;;13.50;5.93;;;;;;;12.81;43.10;100743.81;5051638;28;20061;-62
2022/10/15 11:22:12;;;;;;;10.50;6.03;;;;;;;12.88;43.15;100734.31;5051851;28;20170;-61
2022/10/15 11:25:18;;;;;;;14.18;5.95;;;;;;;12.96;42.94;100733.72;5050087;28;20544;-62
2022/10/15 11:27:56;;;;;;;13.20;5.85;;;;;;;13.06;42.43;100733.88;5050158;28;20043;-62
2022/10/15 11:30:37;;;;;;;12.52;6.28;;;;;;;13.09;42.13;100730.13;5049236;28;20417;-63
2022/10/15 11:33:20;;;;;;;12.38;6.18;;;;;;;13.26;42.41;100737.75;5052019;28;20112;-61
2022/10/15 11:36:22;;;;;;;10.80;6.05;;;;;;;13.43;42.01;100732.91;5048100;28;20116;-62